KBYI/BYI METAR and TAF weather

Enter ICAO airport designator
Station Type Date Time Source
KBYI METAR 2020/07/11 16:53 UTC NOAA

KBYI 111653Z AUTO 05010KT 10SM CLR 27/09 A3018 RMK AO2 SLP175 T02720089


Station Type Date Time Source
KBYI Decoded METAR 2020/07/11 16:53 UTC NOAA

BURLEY MUNICIPAL AIRPORT, ID, United States (KBYI) 42-33N 113-46W 1264M
Jul 11, 2020 - 12:53 PM EDT / 2020.07.11 1653 UTC
Wind: from the NE (050 degrees) at 12 MPH (10 KT):0
Visibility: 10 mile(s):0
Sky conditions: clear
Temperature: 81.0 F (27.2 C)
Dew Point: 48.0 F (8.9 C)
Relative Humidity: 31%
Pressure (altimeter): 30.18 in. Hg (1022 hPa)
ob: KBYI 111653Z AUTO 05010KT 10SM CLR 27/09 A3018 RMK AO2 SLP175 T02720089
cycle: 17

Station Type Date Time Source
KBYI TAF 2020/07/11 12:28 UTC NOAA

TAF KBYI 111125Z 1112/1212 VRB06KT P6SM FEW140
FM120200 20006KT P6SM FEW140

Example: see airport list